sensor_id;sensor_type;location;lat;lon;timestamp;P1;durP1;ratioP1;P2;durP2;ratioP2
12332;SDS011;6232;48.094;11.288;2023-04-03T00:01:36;12.17;;;8.37;;
12332;SDS011;6232;48.094;11.288;2023-04-03T00:04:23;10.20;;;6.73;;
12332;SDS011;6232;48.094;11.288;2023-04-03T00:07:09;9.40;;;7.30;;
12332;SDS011;6232;48.094;11.288;2023-04-03T00:09:54;12.00;;;9.20;;
12332;SDS011;6232;48.094;11.288;2023-04-03T00:12:40;13.43;;;8.83;;
12332;SDS011;6232;48.094;11.288;2023-04-03T00:15:25;8.43;;;7.10;;
12332;SDS011;6232;48.094;11.288;2023-04-03T00:18:11;10.20;;;7.70;;
12332;SDS011;6232;48.094;11.288;2023-04-03T00:20:57;10.20;;;8.30;;
12332;SDS011;6232;48.094;11.288;2023-04-03T00:23:42;11.87;;;8.13;;
12332;SDS011;6232;48.094;11.288;2023-04-03T00:26:28;10.07;;;7.93;;
12332;SDS011;6232;48.094;11.288;2023-04-03T00:29:13;8.37;;;7.50;;
12332;SDS011;6232;48.094;11.288;2023-04-03T00:31:59;12.60;;;7.70;;
12332;SDS011;6232;48.094;11.288;2023-04-03T00:34:44;11.23;;;7.33;;
12332;SDS011;6232;48.094;11.288;2023-04-03T00:37:30;11.87;;;8.10;;
12332;SDS011;6232;48.094;11.288;2023-04-03T00:40:16;8.40;;;6.30;;
12332;SDS011;6232;48.094;11.288;2023-04-03T00:43:01;8.23;;;6.70;;
12332;SDS011;6232;48.094;11.288;2023-04-03T00:45:48;8.07;;;6.93;;
12332;SDS011;6232;48.094;11.288;2023-04-03T00:48:36;22.73;;;7.70;;
12332;SDS011;6232;48.094;11.288;2023-04-03T00:51:23;8.30;;;7.30;;
12332;SDS011;6232;48.094;11.288;2023-04-03T00:54:09;10.97;;;8.00;;
12332;SDS011;6232;48.094;11.288;2023-04-03T00:56:55;11.00;;;8.73;;
12332;SDS011;6232;48.094;11.288;2023-04-03T00:59:43;9.60;;;7.10;;
12332;SDS011;6232;48.094;11.288;2023-04-03T01:02:29;9.70;;;7.50;;
12332;SDS011;6232;48.094;11.288;2023-04-03T01:05:15;10.93;;;8.57;;
12332;SDS011;6232;48.094;11.288;2023-04-03T01:08:01;8.13;;;7.40;;
12332;SDS011;6232;48.094;11.288;2023-04-03T01:10:47;7.53;;;6.83;;
12332;SDS011;6232;48.094;11.288;2023-04-03T01:13:33;10.73;;;7.47;;
12332;SDS011;6232;48.094;11.288;2023-04-03T01:16:19;8.80;;;7.50;;
12332;SDS011;6232;48.094;11.288;2023-04-03T01:19:06;9.80;;;7.10;;
12332;SDS011;6232;48.094;11.288;2023-04-03T01:24:42;11.83;;;7.63;;
12332;SDS011;6232;48.094;11.288;2023-04-03T01:27:28;11.10;;;7.70;;
12332;SDS011;6232;48.094;11.288;2023-04-03T01:30:14;8.50;;;7.50;;
12332;SDS011;6232;48.094;11.288;2023-04-03T01:33:01;9.17;;;6.97;;
12332;SDS011;6232;48.094;11.288;2023-04-03T01:35:47;9.07;;;7.40;;
12332;SDS011;6232;48.094;11.288;2023-04-03T01:38:32;11.80;;;6.73;;
12332;SDS011;6232;48.094;11.288;2023-04-03T01:41:18;7.60;;;6.37;;
12332;SDS011;6232;48.094;11.288;2023-04-03T01:44:04;8.33;;;7.47;;
12332;SDS011;6232;48.094;11.288;2023-04-03T01:46:49;10.20;;;7.47;;
12332;SDS011;6232;48.094;11.288;2023-04-03T01:49:35;7.20;;;6.30;;
12332;SDS011;6232;48.094;11.288;2023-04-03T01:52:20;11.90;;;7.60;;
12332;SDS011;6232;48.094;11.288;2023-04-03T01:55:06;8.90;;;7.47;;
12332;SDS011;6232;48.094;11.288;2023-04-03T01:57:52;10.40;;;6.83;;
12332;SDS011;6232;48.094;11.288;2023-04-03T02:00:37;9.50;;;7.50;;
12332;SDS011;6232;48.094;11.288;2023-04-03T02:03:23;7.80;;;6.93;;
12332;SDS011;6232;48.094;11.288;2023-04-03T02:06:09;10.20;;;7.00;;
12332;SDS011;6232;48.094;11.288;2023-04-03T02:08:54;7.60;;;6.83;;
12332;SDS011;6232;48.094;11.288;2023-04-03T02:11:40;9.83;;;7.50;;
12332;SDS011;6232;48.094;11.288;2023-04-03T02:14:26;10.87;;;7.83;;
12332;SDS011;6232;48.094;11.288;2023-04-03T02:17:12;9.07;;;6.87;;
12332;SDS011;6232;48.094;11.288;2023-04-03T02:19:58;9.27;;;6.60;;
12332;SDS011;6232;48.094;11.288;2023-04-03T02:22:43;6.57;;;5.87;;
12332;SDS011;6232;48.094;11.288;2023-04-03T02:25:32;9.20;;;6.43;;
12332;SDS011;6232;48.094;11.288;2023-04-03T02:28:18;7.10;;;6.40;;
12332;SDS011;6232;48.094;11.288;2023-04-03T02:31:04;7.80;;;6.33;;
12332;SDS011;6232;48.094;11.288;2023-04-03T02:33:51;9.60;;;7.03;;
12332;SDS011;6232;48.094;11.288;2023-04-03T02:36:37;11.77;;;5.77;;
12332;SDS011;6232;48.094;11.288;2023-04-03T02:39:22;7.37;;;5.97;;
12332;SDS011;6232;48.094;11.288;2023-04-03T02:42:08;10.73;;;6.30;;
12332;SDS011;6232;48.094;11.288;2023-04-03T02:44:53;8.07;;;6.17;;
12332;SDS011;6232;48.094;11.288;2023-04-03T02:47:39;8.40;;;6.57;;
12332;SDS011;6232;48.094;11.288;2023-04-03T02:50:25;8.10;;;7.17;;
12332;SDS011;6232;48.094;11.288;2023-04-03T02:53:10;7.33;;;6.13;;
12332;SDS011;6232;48.094;11.288;2023-04-03T02:55:56;7.63;;;5.60;;
12332;SDS011;6232;48.094;11.288;2023-04-03T02:58:41;7.73;;;6.10;;
12332;SDS011;6232;48.094;11.288;2023-04-03T03:01:27;6.17;;;5.57;;
12332;SDS011;6232;48.094;11.288;2023-04-03T03:04:16;7.63;;;6.07;;
12332;SDS011;6232;48.094;11.288;2023-04-03T03:07:02;10.60;;;6.37;;
12332;SDS011;6232;48.094;11.288;2023-04-03T03:09:47;6.80;;;6.10;;
12332;SDS011;6232;48.094;11.288;2023-04-03T03:12:33;8.10;;;6.20;;
12332;SDS011;6232;48.094;11.288;2023-04-03T03:15:18;6.40;;;5.73;;
12332;SDS011;6232;48.094;11.288;2023-04-03T03:18:04;10.80;;;6.13;;
12332;SDS011;6232;48.094;11.288;2023-04-03T03:20:51;6.83;;;6.13;;
12332;SDS011;6232;48.094;11.288;2023-04-03T03:23:36;7.47;;;6.20;;
12332;SDS011;6232;48.094;11.288;2023-04-03T03:26:22;7.43;;;5.30;;
12332;SDS011;6232;48.094;11.288;2023-04-03T03:29:08;7.00;;;6.30;;
12332;SDS011;6232;48.094;11.288;2023-04-03T03:31:53;6.10;;;5.50;;
12332;SDS011;6232;48.094;11.288;2023-04-03T03:34:39;8.03;;;6.50;;
12332;SDS011;6232;48.094;11.288;2023-04-03T03:37:24;7.10;;;5.43;;
12332;SDS011;6232;48.094;11.288;2023-04-03T03:40:10;6.30;;;5.47;;
12332;SDS011;6232;48.094;11.288;2023-04-03T03:42:57;6.43;;;5.30;;
12332;SDS011;6232;48.094;11.288;2023-04-03T03:45:42;6.00;;;5.40;;
12332;SDS011;6232;48.094;11.288;2023-04-03T03:48:28;7.20;;;5.30;;
12332;SDS011;6232;48.094;11.288;2023-04-03T03:51:14;6.30;;;5.70;;
12332;SDS011;6232;48.094;11.288;2023-04-03T03:53:59;7.70;;;5.83;;
12332;SDS011;6232;48.094;11.288;2023-04-03T03:56:45;5.83;;;5.33;;
12332;SDS011;6232;48.094;11.288;2023-04-03T03:59:30;6.60;;;5.63;;
12332;SDS011;6232;48.094;11.288;2023-04-03T04:02:16;7.97;;;5.53;;
12332;SDS011;6232;48.094;11.288;2023-04-03T04:05:01;7.03;;;5.10;;
12332;SDS011;6232;48.094;11.288;2023-04-03T04:07:47;6.67;;;5.07;;
12332;SDS011;6232;48.094;11.288;2023-04-03T04:10:33;7.07;;;5.37;;
12332;SDS011;6232;48.094;11.288;2023-04-03T04:13:18;5.60;;;5.10;;
12332;SDS011;6232;48.094;11.288;2023-04-03T04:16:04;5.77;;;5.20;;
12332;SDS011;6232;48.094;11.288;2023-04-03T04:18:50;7.83;;;5.07;;
12332;SDS011;6232;48.094;11.288;2023-04-03T04:21:36;6.37;;;5.40;;
12332;SDS011;6232;48.094;11.288;2023-04-03T04:24:21;6.87;;;5.80;;
12332;SDS011;6232;48.094;11.288;2023-04-03T04:27:08;5.80;;;5.30;;
12332;SDS011;6232;48.094;11.288;2023-04-03T04:29:53;5.40;;;4.90;;
12332;SDS011;6232;48.094;11.288;2023-04-03T04:32:39;4.73;;;4.33;;
12332;SDS011;6232;48.094;11.288;2023-04-03T04:35:24;6.10;;;4.73;;
12332;SDS011;6232;48.094;11.288;2023-04-03T04:38:10;5.10;;;4.60;;
12332;SDS011;6232;48.094;11.288;2023-04-03T04:40:56;6.00;;;4.63;;
12332;SDS011;6232;48.094;11.288;2023-04-03T04:43:41;8.60;;;5.13;;
12332;SDS011;6232;48.094;11.288;2023-04-03T04:46:27;6.47;;;5.40;;
12332;SDS011;6232;48.094;11.288;2023-04-03T04:49:12;5.70;;;5.10;;
12332;SDS011;6232;48.094;11.288;2023-04-03T04:51:58;6.57;;;5.00;;
12332;SDS011;6232;48.094;11.288;2023-04-03T04:54:44;5.50;;;4.90;;
12332;SDS011;6232;48.094;11.288;2023-04-03T04:57:30;5.50;;;4.60;;
12332;SDS011;6232;48.094;11.288;2023-04-03T05:00:15;5.90;;;5.40;;
12332;SDS011;6232;48.094;11.288;2023-04-03T05:03:01;6.57;;;5.20;;
12332;SDS011;6232;48.094;11.288;2023-04-03T05:05:46;4.90;;;4.40;;
12332;SDS011;6232;48.094;11.288;2023-04-03T05:08:32;8.20;;;5.03;;
12332;SDS011;6232;48.094;11.288;2023-04-03T05:11:17;7.50;;;4.80;;
12332;SDS011;6232;48.094;11.288;2023-04-03T05:14:03;4.37;;;4.07;;
12332;SDS011;6232;48.094;11.288;2023-04-03T05:16:51;8.03;;;5.63;;
12332;SDS011;6232;48.094;11.288;2023-04-03T05:19:39;5.73;;;5.13;;
12332;SDS011;6232;48.094;11.288;2023-04-03T05:22:24;6.53;;;5.03;;
12332;SDS011;6232;48.094;11.288;2023-04-03T05:25:10;9.60;;;5.17;;
12332;SDS011;6232;48.094;11.288;2023-04-03T05:27:55;8.90;;;4.90;;
12332;SDS011;6232;48.094;11.288;2023-04-03T05:30:41;5.47;;;4.90;;
12332;SDS011;6232;48.094;11.288;2023-04-03T05:33:26;8.33;;;4.67;;
12332;SDS011;6232;48.094;11.288;2023-04-03T05:36:12;6.63;;;5.17;;
12332;SDS011;6232;48.094;11.288;2023-04-03T05:38:58;5.77;;;5.23;;
12332;SDS011;6232;48.094;11.288;2023-04-03T05:41:44;6.00;;;5.50;;
12332;SDS011;6232;48.094;11.288;2023-04-03T05:44:29;5.13;;;4.63;;
12332;SDS011;6232;48.094;11.288;2023-04-03T05:47:15;6.50;;;5.67;;
12332;SDS011;6232;48.094;11.288;2023-04-03T05:50:01;7.37;;;5.77;;
12332;SDS011;6232;48.094;11.288;2023-04-03T05:52:47;7.93;;;5.37;;
12332;SDS011;6232;48.094;11.288;2023-04-03T05:55:33;8.43;;;5.60;;
12332;SDS011;6232;48.094;11.288;2023-04-03T05:58:19;6.20;;;5.60;;
12332;SDS011;6232;48.094;11.288;2023-04-03T06:01:04;6.70;;;6.00;;
12332;SDS011;6232;48.094;11.288;2023-04-03T06:03:50;6.87;;;6.10;;
12332;SDS011;6232;48.094;11.288;2023-04-03T06:06:50;6.80;;;5.40;;
12332;SDS011;6232;48.094;11.288;2023-04-03T06:09:36;7.30;;;5.40;;
12332;SDS011;6232;48.094;11.288;2023-04-03T06:12:22;7.70;;;5.87;;
12332;SDS011;6232;48.094;11.288;2023-04-03T06:15:08;8.00;;;4.90;;
12332;SDS011;6232;48.094;11.288;2023-04-03T06:17:55;6.30;;;5.63;;
12332;SDS011;6232;48.094;11.288;2023-04-03T06:20:41;7.77;;;5.67;;
12332;SDS011;6232;48.094;11.288;2023-04-03T06:23:26;6.87;;;6.17;;
12332;SDS011;6232;48.094;11.288;2023-04-03T06:26:12;5.77;;;5.20;;
12332;SDS011;6232;48.094;11.288;2023-04-03T06:28:58;7.43;;;5.87;;
12332;SDS011;6232;48.094;11.288;2023-04-03T06:31:43;5.87;;;4.87;;
12332;SDS011;6232;48.094;11.288;2023-04-03T06:34:29;7.50;;;5.00;;
12332;SDS011;6232;48.094;11.288;2023-04-03T06:37:15;7.97;;;5.97;;
12332;SDS011;6232;48.094;11.288;2023-04-03T06:40:02;8.30;;;5.67;;
12332;SDS011;6232;48.094;11.288;2023-04-03T06:42:48;5.40;;;4.90;;
12332;SDS011;6232;48.094;11.288;2023-04-03T06:45:34;5.70;;;5.07;;
12332;SDS011;6232;48.094;11.288;2023-04-03T06:48:19;5.50;;;5.00;;
12332;SDS011;6232;48.094;11.288;2023-04-03T06:51:06;10.17;;;6.10;;
12332;SDS011;6232;48.094;11.288;2023-04-03T06:53:52;9.13;;;6.20;;
12332;SDS011;6232;48.094;11.288;2023-04-03T06:56:38;8.90;;;6.10;;
12332;SDS011;6232;48.094;11.288;2023-04-03T06:59:24;6.23;;;5.43;;
12332;SDS011;6232;48.094;11.288;2023-04-03T07:02:10;5.80;;;5.27;;
12332;SDS011;6232;48.094;11.288;2023-04-03T07:04:56;8.27;;;5.30;;
12332;SDS011;6232;48.094;11.288;2023-04-03T07:07:42;7.23;;;5.60;;
12332;SDS011;6232;48.094;11.288;2023-04-03T07:10:27;10.33;;;4.80;;
12332;SDS011;6232;48.094;11.288;2023-04-03T07:13:14;5.20;;;4.47;;
12332;SDS011;6232;48.094;11.288;2023-04-03T07:16:00;4.93;;;4.53;;
12332;SDS011;6232;48.094;11.288;2023-04-03T07:18:45;5.80;;;5.23;;
12332;SDS011;6232;48.094;11.288;2023-04-03T07:21:31;7.40;;;5.60;;
12332;SDS011;6232;48.094;11.288;2023-04-03T07:24:17;6.97;;;6.30;;
12332;SDS011;6232;48.094;11.288;2023-04-03T07:27:02;6.93;;;6.23;;
12332;SDS011;6232;48.094;11.288;2023-04-03T07:29:49;5.47;;;4.93;;
12332;SDS011;6232;48.094;11.288;2023-04-03T07:32:35;9.30;;;5.03;;
12332;SDS011;6232;48.094;11.288;2023-04-03T07:35:21;7.23;;;4.63;;
12332;SDS011;6232;48.094;11.288;2023-04-03T07:38:07;19.60;;;4.80;;
12332;SDS011;6232;48.094;11.288;2023-04-03T07:40:53;5.40;;;4.90;;
12332;SDS011;6232;48.094;11.288;2023-04-03T07:43:38;4.80;;;4.30;;
12332;SDS011;6232;48.094;11.288;2023-04-03T07:46:24;4.73;;;4.27;;
12332;SDS011;6232;48.094;11.288;2023-04-03T07:49:10;4.70;;;4.30;;
12332;SDS011;6232;48.094;11.288;2023-04-03T07:51:55;4.70;;;4.30;;
12332;SDS011;6232;48.094;11.288;2023-04-03T07:54:41;5.27;;;4.77;;
12332;SDS011;6232;48.094;11.288;2023-04-03T07:57:27;4.83;;;4.43;;
12332;SDS011;6232;48.094;11.288;2023-04-03T08:00:12;5.37;;;4.87;;
12332;SDS011;6232;48.094;11.288;2023-04-03T08:02:58;5.37;;;4.53;;
12332;SDS011;6232;48.094;11.288;2023-04-03T08:05:47;6.13;;;5.30;;
12332;SDS011;6232;48.094;11.288;2023-04-03T08:08:36;5.73;;;5.10;;
12332;SDS011;6232;48.094;11.288;2023-04-03T08:11:22;5.97;;;4.43;;
12332;SDS011;6232;48.094;11.288;2023-04-03T08:14:09;5.27;;;4.27;;
12332;SDS011;6232;48.094;11.288;2023-04-03T08:17:00;5.73;;;4.57;;
12332;SDS011;6232;48.094;11.288;2023-04-03T08:19:46;6.00;;;4.17;;
12332;SDS011;6232;48.094;11.288;2023-04-03T08:22:32;5.67;;;4.80;;
12332;SDS011;6232;48.094;11.288;2023-04-03T08:25:18;5.73;;;4.30;;
12332;SDS011;6232;48.094;11.288;2023-04-03T08:28:03;5.10;;;4.70;;
12332;SDS011;6232;48.094;11.288;2023-04-03T08:30:49;4.73;;;4.30;;
12332;SDS011;6232;48.094;11.288;2023-04-03T08:33:34;5.20;;;4.70;;
12332;SDS011;6232;48.094;11.288;2023-04-03T08:36:22;4.63;;;4.23;;
12332;SDS011;6232;48.094;11.288;2023-04-03T08:39:08;4.40;;;3.97;;
12332;SDS011;6232;48.094;11.288;2023-04-03T08:41:55;4.83;;;4.20;;
12332;SDS011;6232;48.094;11.288;2023-04-03T08:44:47;5.70;;;5.10;;
12332;SDS011;6232;48.094;11.288;2023-04-03T08:50:38;6.97;;;5.07;;
12332;SDS011;6232;48.094;11.288;2023-04-03T08:53:27;5.67;;;4.60;;
12332;SDS011;6232;48.094;11.288;2023-04-03T08:56:13;5.20;;;4.70;;
12332;SDS011;6232;48.094;11.288;2023-04-03T08:59:13;6.30;;;4.67;;
12332;SDS011;6232;48.094;11.288;2023-04-03T09:02:13;5.40;;;4.90;;
12332;SDS011;6232;48.094;11.288;2023-04-03T09:05:05;6.50;;;4.80;;
12332;SDS011;6232;48.094;11.288;2023-04-03T09:10:40;6.97;;;5.60;;
12332;SDS011;6232;48.094;11.288;2023-04-03T09:13:34;9.93;;;5.40;;
12332;SDS011;6232;48.094;11.288;2023-04-03T09:16:27;5.53;;;4.70;;
12332;SDS011;6232;48.094;11.288;2023-04-03T09:19:17;5.37;;;4.90;;
12332;SDS011;6232;48.094;11.288;2023-04-03T09:22:21;7.17;;;5.47;;
12332;SDS011;6232;48.094;11.288;2023-04-03T09:25:13;6.80;;;5.87;;
12332;SDS011;6232;48.094;11.288;2023-04-03T09:27:59;8.53;;;6.77;;
12332;SDS011;6232;48.094;11.288;2023-04-03T09:30:45;5.90;;;5.30;;
12332;SDS011;6232;48.094;11.288;2023-04-03T09:33:31;7.27;;;3.97;;
12332;SDS011;6232;48.094;11.288;2023-04-03T09:39:23;7.03;;;5.50;;
12332;SDS011;6232;48.094;11.288;2023-04-03T09:45:26;7.37;;;4.80;;
12332;SDS011;6232;48.094;11.288;2023-04-03T09:50:59;8.07;;;5.07;;
12332;SDS011;6232;48.094;11.288;2023-04-03T09:53:45;5.60;;;4.73;;
12332;SDS011;6232;48.094;11.288;2023-04-03T09:56:31;7.23;;;4.40;;
12332;SDS011;6232;48.094;11.288;2023-04-03T09:59:17;4.80;;;4.30;;
12332;SDS011;6232;48.094;11.288;2023-04-03T10:02:04;7.80;;;4.13;;
12332;SDS011;6232;48.094;11.288;2023-04-03T10:05:02;5.40;;;4.67;;
12332;SDS011;6232;48.094;11.288;2023-04-03T10:07:47;3.90;;;3.60;;
12332;SDS011;6232;48.094;11.288;2023-04-03T10:10:33;7.80;;;4.43;;
12332;SDS011;6232;48.094;11.288;2023-04-03T10:13:19;7.50;;;5.83;;
12332;SDS011;6232;48.094;11.288;2023-04-03T10:16:07;5.10;;;4.53;;
12332;SDS011;6232;48.094;11.288;2023-04-03T10:18:56;5.30;;;3.93;;
12332;SDS011;6232;48.094;11.288;2023-04-03T10:21:45;4.67;;;4.27;;
12332;SDS011;6232;48.094;11.288;2023-04-03T10:24:41;7.77;;;5.13;;
12332;SDS011;6232;48.094;11.288;2023-04-03T10:28:13;4.37;;;3.97;;
12332;SDS011;6232;48.094;11.288;2023-04-03T10:30:42;9.10;;;5.30;;
12332;SDS011;6232;48.094;11.288;2023-04-03T10:33:50;4.80;;;4.30;;
12332;SDS011;6232;48.094;11.288;2023-04-03T10:36:43;8.07;;;4.97;;
12332;SDS011;6232;48.094;11.288;2023-04-03T10:48:56;6.83;;;6.10;;
12332;SDS011;6232;48.094;11.288;2023-04-03T10:54:24;7.47;;;4.83;;
12332;SDS011;6232;48.094;11.288;2023-04-03T10:57:11;5.73;;;5.20;;
12332;SDS011;6232;48.094;11.288;2023-04-03T11:00:07;5.53;;;4.63;;
12332;SDS011;6232;48.094;11.288;2023-04-03T11:02:59;6.47;;;4.60;;
12332;SDS011;6232;48.094;11.288;2023-04-03T11:05:50;4.23;;;3.87;;
12332;SDS011;6232;48.094;11.288;2023-04-03T11:09:17;4.80;;;4.30;;
12332;SDS011;6232;48.094;11.288;2023-04-03T11:11:53;5.07;;;4.57;;
12332;SDS011;6232;48.094;11.288;2023-04-03T11:14:41;6.80;;;5.50;;
12332;SDS011;6232;48.094;11.288;2023-04-03T11:17:29;7.90;;;4.93;;
12332;SDS011;6232;48.094;11.288;2023-04-03T11:25:51;8.70;;;5.20;;
12332;SDS011;6232;48.094;11.288;2023-04-03T11:28:38;7.87;;;5.13;;
12332;SDS011;6232;48.094;11.288;2023-04-03T11:34:22;4.87;;;4.47;;
12332;SDS011;6232;48.094;11.288;2023-04-03T11:40:00;5.97;;;5.20;;
12332;SDS011;6232;48.094;11.288;2023-04-03T11:43:07;5.43;;;4.80;;
12332;SDS011;6232;48.094;11.288;2023-04-03T11:46:03;4.90;;;4.30;;
12332;SDS011;6232;48.094;11.288;2023-04-03T11:48:50;5.90;;;4.43;;
12332;SDS011;6232;48.094;11.288;2023-04-03T11:51:39;4.43;;;4.03;;
12332;SDS011;6232;48.094;11.288;2023-04-03T11:54:36;4.63;;;4.00;;
12332;SDS011;6232;48.094;11.288;2023-04-03T11:57:22;4.60;;;3.53;;
12332;SDS011;6232;48.094;11.288;2023-04-03T12:03:29;3.60;;;3.40;;
12332;SDS011;6232;48.094;11.288;2023-04-03T12:09:02;5.27;;;3.47;;
12332;SDS011;6232;48.094;11.288;2023-04-03T12:11:56;3.73;;;3.37;;
12332;SDS011;6232;48.094;11.288;2023-04-03T12:14:42;3.97;;;3.00;;
12332;SDS011;6232;48.094;11.288;2023-04-03T12:17:28;4.03;;;2.83;;
12332;SDS011;6232;48.094;11.288;2023-04-03T12:23:23;7.07;;;2.80;;
12332;SDS011;6232;48.094;11.288;2023-04-03T12:26:19;4.63;;;3.50;;
12332;SDS011;6232;48.094;11.288;2023-04-03T12:29:13;3.00;;;2.60;;
12332;SDS011;6232;48.094;11.288;2023-04-03T12:43:43;2.80;;;2.50;;
12332;SDS011;6232;48.094;11.288;2023-04-03T12:46:37;3.27;;;3.00;;
12332;SDS011;6232;48.094;11.288;2023-04-03T12:55:38;4.53;;;2.80;;
12332;SDS011;6232;48.094;11.288;2023-04-03T12:58:27;2.40;;;2.20;;
12332;SDS011;6232;48.094;11.288;2023-04-03T13:01:16;3.03;;;2.60;;
12332;SDS011;6232;48.094;11.288;2023-04-03T13:04:03;7.90;;;2.83;;
12332;SDS011;6232;48.094;11.288;2023-04-03T13:06:50;3.33;;;2.60;;
12332;SDS011;6232;48.094;11.288;2023-04-03T13:09:35;4.33;;;2.40;;
12332;SDS011;6232;48.094;11.288;2023-04-03T13:12:21;8.07;;;5.67;;
12332;SDS011;6232;48.094;11.288;2023-04-03T13:15:41;3.90;;;2.77;;
12332;SDS011;6232;48.094;11.288;2023-04-03T13:18:23;3.50;;;2.63;;
12332;SDS011;6232;48.094;11.288;2023-04-03T13:21:17;3.73;;;2.67;;
12332;SDS011;6232;48.094;11.288;2023-04-03T13:24:03;3.57;;;3.00;;
12332;SDS011;6232;48.094;11.288;2023-04-03T13:26:49;3.03;;;2.77;;
12332;SDS011;6232;48.094;11.288;2023-04-03T13:29:36;3.70;;;3.00;;
12332;SDS011;6232;48.094;11.288;2023-04-03T13:32:22;2.33;;;2.13;;
12332;SDS011;6232;48.094;11.288;2023-04-03T13:35:25;4.10;;;2.70;;
12332;SDS011;6232;48.094;11.288;2023-04-03T13:41:04;3.90;;;2.60;;
12332;SDS011;6232;48.094;11.288;2023-04-03T13:43:50;3.50;;;2.43;;
12332;SDS011;6232;48.094;11.288;2023-04-03T13:46:36;2.93;;;2.47;;
12332;SDS011;6232;48.094;11.288;2023-04-03T13:49:42;2.53;;;2.33;;
12332;SDS011;6232;48.094;11.288;2023-04-03T13:52:29;3.20;;;2.20;;
12332;SDS011;6232;48.094;11.288;2023-04-03T13:55:17;4.67;;;2.27;;
12332;SDS011;6232;48.094;11.288;2023-04-03T13:58:20;3.00;;;2.10;;
12332;SDS011;6232;48.094;11.288;2023-04-03T14:04:09;3.33;;;2.83;;
12332;SDS011;6232;48.094;11.288;2023-04-03T14:06:55;2.27;;;1.97;;
12332;SDS011;6232;48.094;11.288;2023-04-03T14:09:41;3.37;;;2.70;;
12332;SDS011;6232;48.094;11.288;2023-04-03T14:15:22;3.47;;;2.10;;
12332;SDS011;6232;48.094;11.288;2023-04-03T14:18:13;6.40;;;2.50;;
12332;SDS011;6232;48.094;11.288;2023-04-03T14:20:58;3.13;;;2.47;;
12332;SDS011;6232;48.094;11.288;2023-04-03T14:23:44;3.10;;;2.80;;
12332;SDS011;6232;48.094;11.288;2023-04-03T14:26:30;2.97;;;2.43;;
12332;SDS011;6232;48.094;11.288;2023-04-03T14:29:16;3.03;;;2.53;;
12332;SDS011;6232;48.094;11.288;2023-04-03T14:32:02;3.57;;;2.90;;
12332;SDS011;6232;48.094;11.288;2023-04-03T14:34:48;5.60;;;3.70;;
12332;SDS011;6232;48.094;11.288;2023-04-03T14:37:34;3.33;;;3.00;;
12332;SDS011;6232;48.094;11.288;2023-04-03T14:40:23;3.33;;;3.03;;
12332;SDS011;6232;48.094;11.288;2023-04-03T14:43:09;4.67;;;3.77;;
12332;SDS011;6232;48.094;11.288;2023-04-03T14:45:55;4.77;;;4.10;;
12332;SDS011;6232;48.094;11.288;2023-04-03T14:48:42;5.90;;;3.73;;
12332;SDS011;6232;48.094;11.288;2023-04-03T14:51:28;3.53;;;2.63;;
12332;SDS011;6232;48.094;11.288;2023-04-03T14:54:14;3.47;;;2.60;;
12332;SDS011;6232;48.094;11.288;2023-04-03T14:57:00;4.40;;;3.23;;
12332;SDS011;6232;48.094;11.288;2023-04-03T14:59:46;3.73;;;3.47;;
12332;SDS011;6232;48.094;11.288;2023-04-03T15:02:33;4.67;;;3.10;;
12332;SDS011;6232;48.094;11.288;2023-04-03T15:05:18;5.60;;;2.50;;
12332;SDS011;6232;48.094;11.288;2023-04-03T15:08:04;2.63;;;2.43;;
12332;SDS011;6232;48.094;11.288;2023-04-03T15:10:50;3.33;;;2.70;;
12332;SDS011;6232;48.094;11.288;2023-04-03T15:13:38;2.50;;;2.30;;
12332;SDS011;6232;48.094;11.288;2023-04-03T15:16:24;2.60;;;2.40;;
12332;SDS011;6232;48.094;11.288;2023-04-03T15:19:10;2.27;;;2.07;;
12332;SDS011;6232;48.094;11.288;2023-04-03T15:21:56;4.77;;;2.60;;
12332;SDS011;6232;48.094;11.288;2023-04-03T15:24:42;2.50;;;2.10;;
12332;SDS011;6232;48.094;11.288;2023-04-03T15:27:27;3.70;;;2.37;;
12332;SDS011;6232;48.094;11.288;2023-04-03T15:30:15;2.23;;;2.03;;
12332;SDS011;6232;48.094;11.288;2023-04-03T15:33:01;3.73;;;2.13;;
12332;SDS011;6232;48.094;11.288;2023-04-03T15:35:46;2.00;;;1.80;;
12332;SDS011;6232;48.094;11.288;2023-04-03T15:38:32;4.60;;;2.67;;
12332;SDS011;6232;48.094;11.288;2023-04-03T15:41:17;6.20;;;2.77;;
12332;SDS011;6232;48.094;11.288;2023-04-03T15:44:03;3.77;;;2.10;;
12332;SDS011;6232;48.094;11.288;2023-04-03T15:46:49;3.10;;;2.07;;
12332;SDS011;6232;48.094;11.288;2023-04-03T15:49:36;3.00;;;2.37;;
12332;SDS011;6232;48.094;11.288;2023-04-03T15:52:22;2.27;;;2.07;;
12332;SDS011;6232;48.094;11.288;2023-04-03T15:55:07;5.47;;;3.10;;
12332;SDS011;6232;48.094;11.288;2023-04-03T15:57:53;3.33;;;1.90;;
12332;SDS011;6232;48.094;11.288;2023-04-03T16:00:39;5.70;;;2.37;;
12332;SDS011;6232;48.094;11.288;2023-04-03T16:03:25;2.73;;;2.17;;
12332;SDS011;6232;48.094;11.288;2023-04-03T16:06:11;2.50;;;2.30;;
12332;SDS011;6232;48.094;11.288;2023-04-03T16:08:57;4.83;;;3.60;;
12332;SDS011;6232;48.094;11.288;2023-04-03T16:11:43;5.03;;;3.03;;
12332;SDS011;6232;48.094;11.288;2023-04-03T16:14:28;4.07;;;2.17;;
12332;SDS011;6232;48.094;11.288;2023-04-03T16:17:15;2.47;;;2.27;;
12332;SDS011;6232;48.094;11.288;2023-04-03T16:20:01;3.13;;;2.47;;
12332;SDS011;6232;48.094;11.288;2023-04-03T16:22:48;2.80;;;2.60;;
12332;SDS011;6232;48.094;11.288;2023-04-03T16:25:34;4.57;;;2.50;;
12332;SDS011;6232;48.094;11.288;2023-04-03T16:28:20;2.40;;;2.20;;
12332;SDS011;6232;48.094;11.288;2023-04-03T16:31:06;2.20;;;2.00;;
12332;SDS011;6232;48.094;11.288;2023-04-03T16:33:52;4.13;;;2.30;;
12332;SDS011;6232;48.094;11.288;2023-04-03T16:36:38;2.40;;;2.20;;
12332;SDS011;6232;48.094;11.288;2023-04-03T16:39:23;5.03;;;2.20;;
12332;SDS011;6232;48.094;11.288;2023-04-03T16:42:09;2.80;;;2.60;;
12332;SDS011;6232;48.094;11.288;2023-04-03T16:44:55;2.70;;;2.23;;
12332;SDS011;6232;48.094;11.288;2023-04-03T16:47:40;2.17;;;2.07;;
12332;SDS011;6232;48.094;11.288;2023-04-03T16:50:26;5.00;;;2.57;;
12332;SDS011;6232;48.094;11.288;2023-04-03T16:53:11;7.77;;;2.57;;
12332;SDS011;6232;48.094;11.288;2023-04-03T16:55:57;2.50;;;1.97;;
12332;SDS011;6232;48.094;11.288;2023-04-03T16:58:43;3.67;;;2.60;;
12332;SDS011;6232;48.094;11.288;2023-04-03T17:01:29;2.70;;;2.00;;
12332;SDS011;6232;48.094;11.288;2023-04-03T17:04:14;3.03;;;2.73;;
12332;SDS011;6232;48.094;11.288;2023-04-03T17:07:00;2.60;;;2.40;;
12332;SDS011;6232;48.094;11.288;2023-04-03T17:09:50;6.07;;;2.73;;
12332;SDS011;6232;48.094;11.288;2023-04-03T17:12:36;2.90;;;2.47;;
12332;SDS011;6232;48.094;11.288;2023-04-03T17:15:22;4.23;;;2.50;;
12332;SDS011;6232;48.094;11.288;2023-04-03T17:18:09;2.40;;;2.20;;
12332;SDS011;6232;48.094;11.288;2023-04-03T17:20:55;2.90;;;2.57;;
12332;SDS011;6232;48.094;11.288;2023-04-03T17:23:41;4.03;;;3.10;;
12332;SDS011;6232;48.094;11.288;2023-04-03T17:26:27;3.53;;;3.10;;
12332;SDS011;6232;48.094;11.288;2023-04-03T17:29:13;5.17;;;3.30;;
12332;SDS011;6232;48.094;11.288;2023-04-03T17:31:59;2.93;;;2.73;;
12332;SDS011;6232;48.094;11.288;2023-04-03T17:34:47;4.97;;;2.50;;
12332;SDS011;6232;48.094;11.288;2023-04-03T17:37:33;2.97;;;2.77;;
12332;SDS011;6232;48.094;11.288;2023-04-03T17:40:18;3.47;;;2.50;;
12332;SDS011;6232;48.094;11.288;2023-04-03T17:43:04;4.60;;;4.20;;
12332;SDS011;6232;48.094;11.288;2023-04-03T17:45:49;5.80;;;3.27;;
12332;SDS011;6232;48.094;11.288;2023-04-03T17:48:36;6.77;;;3.80;;
12332;SDS011;6232;48.094;11.288;2023-04-03T17:51:22;5.30;;;3.57;;
12332;SDS011;6232;48.094;11.288;2023-04-03T17:54:08;4.73;;;3.70;;
12332;SDS011;6232;48.094;11.288;2023-04-03T17:56:53;3.60;;;3.10;;
12332;SDS011;6232;48.094;11.288;2023-04-03T17:59:39;3.70;;;2.80;;
12332;SDS011;6232;48.094;11.288;2023-04-03T18:02:24;3.50;;;2.90;;